PWSweather.com
Personal Weather Stations
Station Observations
WD4JKH
Forsyth, GA 31029

Forsyth, GA 31029

Lat: 33.033225, Lon: -83.927995

Elevation: 709

Station Type: Davis Vantage VUE

High Low Average
Temperature 55.5°F13.1°C 48.4°F9.1°C 51.5°F10.8°C
Dew Point 51.9°F11.1°C 45.9°F7.7°C 48.4°F9.1°C
Winds 7.5 mph 12.1 kmh Calm Calm 2.0 mph SW3.2 kmh SW
Wind Gusts 18.0 mph29.0 kmh -- 7.0 mph11.3 kmh
Humidity 99% 74% 90%
Pressure 30.07 in1018.3 mb 29.89 in1012.2 mb -
Precipitation 1.26 in32.0 mm - -
Hour Temp Dew Point Humidity Winds Wind Gusts Pressure Precip Precip Rate Daily Precip Total
12:00 AM 51.2°F10.7°C 50.9°F10.5°C 99% 1.3 mph NE2.1 kmh NE 15.0 mph24.1 kmh 29.91 in1012.9 mb 0.02 in0.5 mm 0.00 in0.0 mm 1.26 in32.0 mm
12:05 AM 51.3°F10.7°C 51.0°F10.6°C 99% 1.0 mph ESE1.6 kmh ESE 15.0 mph24.1 kmh 29.92 in1013.2 mb 0.02 in0.5 mm 0.00 in0.0 mm 0.02 in0.5 mm
12:10 AM 51.4°F10.8°C 51.1°F10.6°C 99% Calm Calm 4.0 mph6.4 kmh 29.92 in1013.2 mb 0.02 in0.5 mm 0.00 in0.0 mm 0.02 in0.5 mm
12:15 AM 51.4°F10.8°C 51.1°F10.6°C 99% Calm Calm 2.0 mph3.2 kmh 29.92 in1013.2 mb 0.01 in0.3 mm 0.00 in0.0 mm 0.02 in0.5 mm
12:20 AM 51.5°F10.8°C 51.2°F10.7°C 99% 1.0 mph E1.6 kmh E 1.0 mph1.6 kmh 29.91 in1012.9 mb 0.01 in0.3 mm 0.00 in0.0 mm 0.02 in0.5 mm
12:25 AM 51.5°F10.8°C 51.2°F10.7°C 99% Calm Calm 1.0 mph1.6 kmh 29.90 in1012.5 mb 0.01 in0.3 mm 0.00 in0.0 mm 0.02 in0.5 mm
12:30 AM 51.4°F10.8°C 51.1°F10.6°C 99% Calm Calm 1.0 mph1.6 kmh 29.91 in1012.9 mb 0.00 in0.0 mm 0.00 in0.0 mm 0.02 in0.5 mm
12:35 AM 51.4°F10.8°C 51.1°F10.6°C 99% Calm Calm 1.0 mph1.6 kmh 29.92 in1013.2 mb 0.00 in0.0 mm 0.00 in0.0 mm 0.02 in0.5 mm
12:40 AM 51.4°F10.8°C 51.1°F10.6°C 99% Calm Calm 1.0 mph1.6 kmh 29.92 in1013.2 mb 0.00 in0.0 mm 0.00 in0.0 mm 0.02 in0.5 mm
12:45 AM 51.5°F10.8°C 51.2°F10.7°C 99% 1.0 mph W1.6 kmh W 1.0 mph1.6 kmh 29.92 in1013.2 mb 0.00 in0.0 mm 0.00 in0.0 mm 0.02 in0.5 mm
12:50 AM 51.5°F10.8°C 51.2°F10.7°C 99% 1.3 mph WSW2.1 kmh WSW 2.0 mph3.2 kmh 29.96 in1014.6 mb 0.00 in0.0 mm 0.00 in0.0 mm 0.02 in0.5 mm
12:55 AM 51.6°F10.9°C 51.3°F10.7°C 99% 3.1 mph WSW5.0 kmh WSW 10.0 mph16.1 kmh 29.96 in1014.6 mb 0.00 in0.0 mm 0.00 in0.0 mm 0.02 in0.5 mm
01:00 AM 51.6°F10.9°C 51.3°F10.7°C 99% 1.5 mph W2.4 kmh W 10.0 mph16.1 kmh 29.95 in1014.2 mb 0.00 in0.0 mm 0.00 in0.0 mm 0.02 in0.5 mm
01:05 AM 51.6°F10.9°C 51.3°F10.7°C 99% 1.0 mph NE1.6 kmh NE 10.0 mph16.1 kmh 29.91 in1012.9 mb 0.00 in0.0 mm 0.00 in0.0 mm 0.02 in0.5 mm
01:10 AM 51.6°F10.9°C 51.3°F10.7°C 99% Calm Calm 10.0 mph16.1 kmh 29.92 in1013.2 mb 0.00 in0.0 mm 0.00 in0.0 mm 0.02 in0.5 mm
01:15 AM 51.7°F10.9°C 51.4°F10.8°C 99% 1.0 mph WNW1.6 kmh WNW 3.0 mph4.8 kmh 29.92 in1013.2 mb 0.00 in0.0 mm 0.00 in0.0 mm 0.02 in0.5 mm
01:20 AM 51.7°F10.9°C 51.4°F10.8°C 99% 1.0 mph WNW1.6 kmh WNW 3.0 mph4.8 kmh 29.93 in1013.5 mb 0.00 in0.0 mm 0.00 in0.0 mm 0.02 in0.5 mm
01:25 AM 51.6°F10.9°C 51.3°F10.7°C 99% Calm Calm 2.0 mph3.2 kmh 29.91 in1012.9 mb 0.00 in0.0 mm 0.00 in0.0 mm 0.02 in0.5 mm
01:30 AM 51.6°F10.9°C 51.3°F10.7°C 99% Calm Calm 1.0 mph1.6 kmh 29.91 in1012.9 mb 0.00 in0.0 mm 0.00 in0.0 mm 0.02 in0.5 mm
01:35 AM 51.6°F10.9°C 51.3°F10.7°C 99% Calm Calm 1.0 mph1.6 kmh 29.92 in1013.2 mb 0.00 in0.0 mm 0.00 in0.0 mm 0.02 in0.5 mm
01:40 AM 51.6°F10.9°C 51.3°F10.7°C 99% Calm Calm 1.0 mph1.6 kmh 29.92 in1013.2 mb 0.00 in0.0 mm 0.00 in0.0 mm 0.02 in0.5 mm
01:45 AM 51.5°F10.8°C 51.2°F10.7°C 99% Calm Calm -- 29.90 in1012.5 mb 0.00 in0.0 mm 0.00 in0.0 mm 0.02 in0.5 mm
01:50 AM 51.4°F10.8°C 51.1°F10.6°C 99% 1.0 mph W1.6 kmh W 1.0 mph1.6 kmh 29.93 in1013.5 mb 0.00 in0.0 mm 0.00 in0.0 mm 0.02 in0.5 mm
01:55 AM 51.4°F10.8°C 51.1°F10.6°C 99% Calm Calm 1.0 mph1.6 kmh 29.92 in1013.2 mb 0.00 in0.0 mm 0.00 in0.0 mm 0.02 in0.5 mm
02:00 AM 51.4°F10.8°C 51.1°F10.6°C 99% 1.0 mph NE1.6 kmh NE 1.0 mph1.6 kmh 29.91 in1012.9 mb 0.00 in0.0 mm 0.00 in0.0 mm 0.02 in0.5 mm
02:05 AM 51.3°F10.7°C 51.0°F10.6°C 99% Calm Calm 1.0 mph1.6 kmh 29.91 in1012.9 mb 0.00 in0.0 mm 0.00 in0.0 mm 0.02 in0.5 mm
02:10 AM 51.2°F10.7°C 50.9°F10.5°C 99% 1.0 mph NE1.6 kmh NE 1.0 mph1.6 kmh 29.91 in1012.9 mb 0.00 in0.0 mm 0.00 in0.0 mm 0.02 in0.5 mm
02:15 AM 51.1°F10.6°C 50.8°F10.4°C 99% 1.3 mph NE2.1 kmh NE 3.0 mph4.8 kmh 29.89 in1012.2 mb 0.00 in0.0 mm 0.00 in0.0 mm 0.02 in0.5 mm
02:20 AM 51.1°F10.6°C 50.8°F10.4°C 99% 1.0 mph NE1.6 kmh NE 3.0 mph4.8 kmh 29.92 in1013.2 mb 0.00 in0.0 mm 0.00 in0.0 mm 0.02 in0.5 mm
02:25 AM 51.0°F10.6°C 50.7°F10.4°C 99% Calm Calm 3.0 mph4.8 kmh 29.91 in1012.9 mb 0.00 in0.0 mm 0.00 in0.0 mm 0.02 in0.5 mm
02:30 AM 51.0°F10.6°C 50.7°F10.4°C 99% Calm Calm 3.0 mph4.8 kmh 29.92 in1013.2 mb 0.00 in0.0 mm 0.00 in0.0 mm 0.02 in0.5 mm
02:35 AM 51.0°F10.6°C 50.7°F10.4°C 99% Calm Calm 1.0 mph1.6 kmh 29.92 in1013.2 mb 0.00 in0.0 mm 0.00 in0.0 mm 0.02 in0.5 mm
02:40 AM 51.0°F10.6°C 50.7°F10.4°C 99% Calm Calm -- 29.93 in1013.5 mb 0.00 in0.0 mm 0.00 in0.0 mm 0.02 in0.5 mm
02:45 AM 51.0°F10.6°C 50.7°F10.4°C 99% Calm Calm -- 29.92 in1013.2 mb 0.00 in0.0 mm 0.00 in0.0 mm 0.02 in0.5 mm
02:50 AM 51.0°F10.6°C 50.7°F10.4°C 99% Calm Calm -- 29.92 in1013.2 mb 0.00 in0.0 mm 0.00 in0.0 mm 0.02 in0.5 mm
02:55 AM 50.9°F10.5°C 50.6°F10.3°C 99% Calm Calm -- 29.93 in1013.5 mb 0.00 in0.0 mm 0.00 in0.0 mm 0.02 in0.5 mm
03:00 AM 51.0°F10.6°C 50.7°F10.4°C 99% Calm Calm -- 29.93 in1013.5 mb 0.00 in0.0 mm 0.00 in0.0 mm 0.02 in0.5 mm
03:04 AM 50.9°F10.5°C 50.6°F10.3°C 99% Calm Calm -- 29.93 in1013.5 mb 0.00 in0.0 mm 0.00 in0.0 mm 0.02 in0.5 mm
03:09 AM 50.8°F10.4°C 50.5°F10.3°C 99% 1.0 mph NE1.6 kmh NE 1.0 mph1.6 kmh 29.91 in1012.9 mb 0.00 in0.0 mm 0.00 in0.0 mm 0.02 in0.5 mm
03:14 AM 50.8°F10.4°C 50.5°F10.3°C 99% Calm Calm 1.0 mph1.6 kmh 29.92 in1013.2 mb 0.00 in0.0 mm 0.00 in0.0 mm 0.02 in0.5 mm
03:19 AM 50.7°F10.4°C 50.4°F10.2°C 99% Calm Calm 1.0 mph1.6 kmh 29.91 in1012.9 mb 0.00 in0.0 mm 0.00 in0.0 mm 0.02 in0.5 mm
03:24 AM 50.7°F10.4°C 50.4°F10.2°C 99% 1.0 mph NE1.6 kmh NE 1.0 mph1.6 kmh 29.91 in1012.9 mb 0.00 in0.0 mm 0.00 in0.0 mm 0.02 in0.5 mm
03:29 AM 50.7°F10.4°C 50.4°F10.2°C 99% Calm Calm 1.0 mph1.6 kmh 29.92 in1013.2 mb 0.00 in0.0 mm 0.00 in0.0 mm 0.02 in0.5 mm
03:34 AM 50.6°F10.3°C 50.3°F10.2°C 99% Calm Calm 1.0 mph1.6 kmh 29.93 in1013.5 mb 0.00 in0.0 mm 0.00 in0.0 mm 0.02 in0.5 mm
03:39 AM 50.6°F10.3°C 50.3°F10.2°C 99% 1.0 mph ENE1.6 kmh ENE 1.0 mph1.6 kmh 29.93 in1013.5 mb 0.00 in0.0 mm 0.00 in0.0 mm 0.02 in0.5 mm
03:44 AM 50.6°F10.3°C 50.3°F10.2°C 99% 1.0 mph ENE1.6 kmh ENE 1.0 mph1.6 kmh 29.92 in1013.2 mb 0.00 in0.0 mm 0.00 in0.0 mm 0.02 in0.5 mm
03:49 AM 50.6°F10.3°C 50.3°F10.2°C 99% Calm Calm 1.0 mph1.6 kmh 29.92 in1013.2 mb 0.00 in0.0 mm 0.00 in0.0 mm 0.02 in0.5 mm
03:54 AM 50.6°F10.3°C 50.3°F10.2°C 99% Calm Calm 1.0 mph1.6 kmh 29.92 in1013.2 mb 0.00 in0.0 mm 0.00 in0.0 mm 0.02 in0.5 mm
03:59 AM 50.6°F10.3°C 50.3°F10.2°C 99% 1.0 mph ENE1.6 kmh ENE 1.0 mph1.6 kmh 29.91 in1012.9 mb 0.00 in0.0 mm 0.00 in0.0 mm 0.02 in0.5 mm
04:04 AM 50.6°F10.3°C 50.3°F10.2°C 99% Calm Calm 1.0 mph1.6 kmh 29.91 in1012.9 mb 0.00 in0.0 mm 0.00 in0.0 mm 0.02 in0.5 mm
04:09 AM 50.6°F10.3°C 50.3°F10.2°C 99% Calm Calm 1.0 mph1.6 kmh 29.91 in1012.9 mb 0.00 in0.0 mm 0.00 in0.0 mm 0.02 in0.5 mm
04:14 AM 50.5°F10.3°C 50.2°F10.1°C 99% Calm Calm 1.0 mph1.6 kmh 29.92 in1013.2 mb 0.00 in0.0 mm 0.00 in0.0 mm 0.02 in0.5 mm
04:19 AM 50.6°F10.3°C 50.3°F10.2°C 99% Calm Calm -- 29.92 in1013.2 mb 0.00 in0.0 mm 0.00 in0.0 mm 0.01 in0.3 mm
04:24 AM 50.6°F10.3°C 50.3°F10.2°C 99% Calm Calm -- 29.92 in1013.2 mb 0.01 in0.3 mm 0.12 in3.0 mm 0.01 in0.3 mm
04:29 AM 50.6°F10.3°C 50.3°F10.2°C 99% Calm Calm -- 29.93 in1013.5 mb 0.01 in0.3 mm 0.00 in0.0 mm 0.01 in0.3 mm
04:34 AM 50.6°F10.3°C 50.3°F10.2°C 99% Calm Calm -- 29.93 in1013.5 mb 0.01 in0.3 mm 0.00 in0.0 mm 0.01 in0.3 mm
04:39 AM 50.6°F10.3°C 50.3°F10.2°C 99% Calm Calm -- 29.93 in1013.5 mb 0.02 in0.5 mm 0.12 in3.0 mm 0.02 in0.5 mm
04:44 AM 50.7°F10.4°C 50.4°F10.2°C 99% Calm Calm -- 29.93 in1013.5 mb 0.02 in0.5 mm 0.00 in0.0 mm 0.02 in0.5 mm
04:49 AM 50.7°F10.4°C 50.4°F10.2°C 99% Calm Calm -- 29.93 in1013.5 mb 0.03 in0.8 mm 0.12 in3.0 mm 0.03 in0.8 mm
04:54 AM 50.8°F10.4°C 50.5°F10.3°C 99% Calm Calm -- 29.93 in1013.5 mb 0.04 in1.0 mm 0.12 in3.0 mm 0.04 in1.0 mm
04:59 AM 50.8°F10.4°C 50.5°F10.3°C 99% Calm Calm -- 29.93 in1013.5 mb 0.04 in1.0 mm 0.00 in0.0 mm 0.04 in1.0 mm
05:04 AM 50.9°F10.5°C 50.6°F10.3°C 99% 1.3 mph SW2.1 kmh SW 2.0 mph3.2 kmh 29.93 in1013.5 mb 0.04 in1.0 mm 0.00 in0.0 mm 0.04 in1.0 mm
05:09 AM 51.0°F10.6°C 50.7°F10.4°C 99% Calm Calm 2.0 mph3.2 kmh 29.93 in1013.5 mb 0.05 in1.3 mm 0.12 in3.0 mm 0.05 in1.3 mm
05:14 AM 51.2°F10.7°C 50.9°F10.5°C 99% 1.8 mph S2.9 kmh S 2.0 mph3.2 kmh 29.94 in1013.9 mb 0.05 in1.3 mm 0.00 in0.0 mm 0.05 in1.3 mm
05:19 AM 51.4°F10.8°C 51.1°F10.6°C 99% 1.0 mph SW1.6 kmh SW 2.0 mph3.2 kmh 29.93 in1013.5 mb 0.04 in1.0 mm 0.00 in0.0 mm 0.05 in1.3 mm
05:24 AM 51.5°F10.8°C 51.2°F10.7°C 99% Calm Calm 3.0 mph4.8 kmh 29.93 in1013.5 mb 0.05 in1.3 mm 0.12 in3.0 mm 0.06 in1.5 mm
05:29 AM 51.6°F10.9°C 51.3°F10.7°C 99% Calm Calm 3.0 mph4.8 kmh 29.93 in1013.5 mb 0.05 in1.3 mm 0.00 in0.0 mm 0.06 in1.5 mm
05:34 AM 51.6°F10.9°C 51.3°F10.7°C 99% Calm Calm 3.0 mph4.8 kmh 29.93 in1013.5 mb 0.05 in1.3 mm 0.00 in0.0 mm 0.06 in1.5 mm
05:39 AM 51.6°F10.9°C 51.3°F10.7°C 99% 1.0 mph SW1.6 kmh SW 3.0 mph4.8 kmh 29.93 in1013.5 mb 0.04 in1.0 mm 0.00 in0.0 mm 0.06 in1.5 mm
05:44 AM 51.6°F10.9°C 51.3°F10.7°C 99% 1.0 mph SW1.6 kmh SW 1.0 mph1.6 kmh 29.93 in1013.5 mb 0.04 in1.0 mm 0.00 in0.0 mm 0.06 in1.5 mm
05:49 AM 51.6°F10.9°C 51.3°F10.7°C 99% 1.0 mph SW1.6 kmh SW 1.0 mph1.6 kmh 29.93 in1013.5 mb 0.03 in0.8 mm 0.00 in0.0 mm 0.06 in1.5 mm
05:54 AM 51.6°F10.9°C 51.3°F10.7°C 99% 1.0 mph SW1.6 kmh SW 1.0 mph1.6 kmh 29.94 in1013.9 mb 0.02 in0.5 mm 0.00 in0.0 mm 0.06 in1.5 mm
05:59 AM 51.6°F10.9°C 51.3°F10.7°C 99% 1.0 mph SW1.6 kmh SW 1.0 mph1.6 kmh 29.94 in1013.9 mb 0.02 in0.5 mm 0.00 in0.0 mm 0.06 in1.5 mm
06:04 AM 51.6°F10.9°C 51.3°F10.7°C 99% 2.0 mph SW3.2 kmh SW 6.0 mph9.7 kmh 29.94 in1013.9 mb 0.02 in0.5 mm 0.00 in0.0 mm 0.06 in1.5 mm
06:09 AM 51.5°F10.8°C 51.2°F10.7°C 99% 1.6 mph SW2.6 kmh SW 6.0 mph9.7 kmh 29.94 in1013.9 mb 0.01 in0.3 mm 0.00 in0.0 mm 0.06 in1.5 mm
06:14 AM 51.3°F10.7°C 51.0°F10.6°C 99% 1.8 mph SW2.9 kmh SW 6.0 mph9.7 kmh 29.94 in1013.9 mb 0.01 in0.3 mm 0.00 in0.0 mm 0.06 in1.5 mm
06:19 AM 51.2°F10.7°C 50.9°F10.5°C 99% 1.5 mph SW2.4 kmh SW 5.0 mph8.0 kmh 29.95 in1014.2 mb 0.01 in0.3 mm 0.00 in0.0 mm 0.06 in1.5 mm
06:24 AM 51.0°F10.6°C 50.7°F10.4°C 99% 1.4 mph SW2.3 kmh SW 5.0 mph8.0 kmh 29.95 in1014.2 mb 0.00 in0.0 mm 0.00 in0.0 mm 0.06 in1.5 mm
06:29 AM 50.9°F10.5°C 50.6°F10.3°C 99% 1.3 mph SW2.1 kmh SW 5.0 mph8.0 kmh 29.95 in1014.2 mb 0.01 in0.3 mm 0.12 in3.0 mm 0.07 in1.8 mm
06:34 AM 50.8°F10.4°C 50.5°F10.3°C 99% 1.0 mph WSW1.6 kmh WSW 5.0 mph8.0 kmh 29.95 in1014.2 mb 0.01 in0.3 mm 0.00 in0.0 mm 0.07 in1.8 mm
06:39 AM 50.8°F10.4°C 50.5°F10.3°C 99% Calm Calm 4.0 mph6.4 kmh 29.95 in1014.2 mb 0.02 in0.5 mm 0.12 in3.0 mm 0.08 in2.0 mm
06:44 AM 50.7°F10.4°C 50.4°F10.2°C 99% Calm Calm 2.0 mph3.2 kmh 29.95 in1014.2 mb 0.02 in0.5 mm 0.00 in0.0 mm 0.08 in2.0 mm
06:49 AM 50.7°F10.4°C 50.4°F10.2°C 99% Calm Calm 1.0 mph1.6 kmh 29.95 in1014.2 mb 0.02 in0.5 mm 0.00 in0.0 mm 0.08 in2.0 mm
06:54 AM 50.7°F10.4°C 50.4°F10.2°C 99% Calm Calm 1.0 mph1.6 kmh 29.96 in1014.6 mb 0.02 in0.5 mm 0.00 in0.0 mm 0.08 in2.0 mm
06:59 AM 50.7°F10.4°C 50.4°F10.2°C 99% 1.0 mph SW1.6 kmh SW 1.0 mph1.6 kmh 29.96 in1014.6 mb 0.02 in0.5 mm 0.00 in0.0 mm 0.08 in2.0 mm
07:04 AM 50.7°F10.4°C 50.4°F10.2°C 99% 1.0 mph SW1.6 kmh SW 1.0 mph1.6 kmh 29.96 in1014.6 mb 0.02 in0.5 mm 0.00 in0.0 mm 0.08 in2.0 mm
07:09 AM 50.7°F10.4°C 50.4°F10.2°C 99% 1.0 mph SSE1.6 kmh SSE 1.0 mph1.6 kmh 29.96 in1014.6 mb 0.02 in0.5 mm 0.00 in0.0 mm 0.08 in2.0 mm
07:14 AM 50.7°F10.4°C 50.4°F10.2°C 99% Calm Calm 1.0 mph1.6 kmh 29.97 in1014.9 mb 0.02 in0.5 mm 0.00 in0.0 mm 0.08 in2.0 mm
07:20 AM 50.7°F10.4°C 50.4°F10.2°C 99% Calm Calm 1.0 mph1.6 kmh 29.97 in1014.9 mb 0.02 in0.5 mm 0.00 in0.0 mm 0.08 in2.0 mm
07:24 AM 50.6°F10.3°C 50.3°F10.2°C 99% 1.3 mph SW2.1 kmh SW 3.0 mph4.8 kmh 29.97 in1014.9 mb 0.02 in0.5 mm 0.00 in0.0 mm 0.08 in2.0 mm
07:30 AM 50.6°F10.3°C 50.3°F10.2°C 99% Calm Calm 3.0 mph4.8 kmh 29.97 in1014.9 mb 0.01 in0.3 mm 0.00 in0.0 mm 0.08 in2.0 mm
07:35 AM 50.6°F10.3°C 50.3°F10.2°C 99% 1.0 mph SW1.6 kmh SW 3.0 mph4.8 kmh 29.97 in1014.9 mb 0.01 in0.3 mm 0.00 in0.0 mm 0.08 in2.0 mm
07:40 AM 50.6°F10.3°C 50.3°F10.2°C 99% Calm Calm 3.0 mph4.8 kmh 29.97 in1014.9 mb 0.00 in0.0 mm 0.00 in0.0 mm 0.08 in2.0 mm
07:44 AM 50.5°F10.3°C 50.2°F10.1°C 99% 1.0 mph SW1.6 kmh SW 1.0 mph1.6 kmh 29.97 in1014.9 mb 0.00 in0.0 mm 0.00 in0.0 mm 0.08 in2.0 mm
07:50 AM 50.5°F10.3°C 50.2°F10.1°C 99% Calm Calm 1.0 mph1.6 kmh 29.97 in1014.9 mb 0.00 in0.0 mm 0.00 in0.0 mm 0.08 in2.0 mm
07:55 AM 50.5°F10.3°C 50.2°F10.1°C 99% Calm Calm 1.0 mph1.6 kmh 29.97 in1014.9 mb 0.00 in0.0 mm 0.00 in0.0 mm 0.08 in2.0 mm
08:00 AM 50.5°F10.3°C 50.2°F10.1°C 99% Calm Calm 1.0 mph1.6 kmh 29.97 in1014.9 mb 0.00 in0.0 mm 0.00 in0.0 mm 0.08 in2.0 mm
08:04 AM 50.5°F10.3°C 50.2°F10.1°C 99% 1.0 mph S1.6 kmh S 2.0 mph3.2 kmh 29.97 in1014.9 mb 0.00 in0.0 mm 0.00 in0.0 mm 0.08 in2.0 mm
08:09 AM 50.4°F10.2°C 50.1°F10.1°C 99% 2.0 mph SW3.2 kmh SW 3.0 mph4.8 kmh 29.97 in1014.9 mb 0.00 in0.0 mm 0.00 in0.0 mm 0.08 in2.0 mm
08:14 AM 50.3°F10.2°C 50.0°F10.0°C 99% 1.0 mph SSW1.6 kmh SSW 3.0 mph4.8 kmh 29.97 in1014.9 mb 0.00 in0.0 mm 0.00 in0.0 mm 0.08 in2.0 mm
08:19 AM 50.4°F10.2°C 50.1°F10.1°C 99% 1.5 mph SSW2.4 kmh SSW 3.0 mph4.8 kmh 29.97 in1014.9 mb 0.00 in0.0 mm 0.00 in0.0 mm 0.08 in2.0 mm
08:24 AM 50.5°F10.3°C 50.2°F10.1°C 99% 1.8 mph SW2.9 kmh SW 3.0 mph4.8 kmh 29.98 in1015.2 mb 0.00 in0.0 mm 0.00 in0.0 mm 0.08 in2.0 mm
08:29 AM 50.5°F10.3°C 50.2°F10.1°C 99% 1.3 mph SSW2.1 kmh SSW 4.0 mph6.4 kmh 29.98 in1015.2 mb 0.00 in0.0 mm 0.00 in0.0 mm 0.08 in2.0 mm
08:34 AM 50.4°F10.2°C 50.1°F10.1°C 99% 3.1 mph SW5.0 kmh SW 5.0 mph8.0 kmh 29.98 in1015.2 mb 0.01 in0.3 mm 0.12 in3.0 mm 0.09 in2.3 mm
08:39 AM 50.3°F10.2°C 50.0°F10.0°C 99% 2.3 mph SW3.7 kmh SW 5.0 mph8.0 kmh 29.98 in1015.2 mb 0.01 in0.3 mm 0.00 in0.0 mm 0.09 in2.3 mm
08:44 AM 50.3°F10.2°C 50.0°F10.0°C 99% 1.0 mph SW1.6 kmh SW 5.0 mph8.0 kmh 29.98 in1015.2 mb 0.01 in0.3 mm 0.00 in0.0 mm 0.09 in2.3 mm
08:49 AM 50.4°F10.2°C 50.1°F10.1°C 99% 1.6 mph SW2.6 kmh SW 5.0 mph8.0 kmh 29.98 in1015.2 mb 0.01 in0.3 mm 0.00 in0.0 mm 0.09 in2.3 mm
08:54 AM 50.4°F10.2°C 50.1°F10.1°C 99% 1.0 mph SW1.6 kmh SW 5.0 mph8.0 kmh 29.98 in1015.2 mb 0.01 in0.3 mm 0.00 in0.0 mm 0.09 in2.3 mm
08:59 AM 50.6°F10.3°C 50.3°F10.2°C 99% 1.3 mph SW2.1 kmh SW 2.0 mph3.2 kmh 29.98 in1015.2 mb 0.01 in0.3 mm 0.00 in0.0 mm 0.09 in2.3 mm
09:04 AM 50.7°F10.4°C 50.4°F10.2°C 99% 1.4 mph SW2.3 kmh SW 2.0 mph3.2 kmh 29.97 in1014.9 mb 0.01 in0.3 mm 0.00 in0.0 mm 0.09 in2.3 mm
09:09 AM 50.9°F10.5°C 50.6°F10.3°C 99% 1.1 mph SW1.8 kmh SW 2.0 mph3.2 kmh 29.98 in1015.2 mb 0.01 in0.3 mm 0.00 in0.0 mm 0.09 in2.3 mm
09:14 AM 51.1°F10.6°C 50.8°F10.4°C 99% 1.6 mph SW2.6 kmh SW 4.0 mph6.4 kmh 29.98 in1015.2 mb 0.01 in0.3 mm 0.00 in0.0 mm 0.09 in2.3 mm
09:19 AM 51.3°F10.7°C 51.0°F10.6°C 99% 2.3 mph SW3.7 kmh SW 6.0 mph9.7 kmh 29.98 in1015.2 mb 0.01 in0.3 mm 0.00 in0.0 mm 0.09 in2.3 mm
09:24 AM 51.4°F10.8°C 51.1°F10.6°C 99% 2.6 mph SW4.2 kmh SW 6.0 mph9.7 kmh 29.98 in1015.2 mb 0.01 in0.3 mm 0.00 in0.0 mm 0.09 in2.3 mm
09:29 AM 51.5°F10.8°C 51.2°F10.7°C 99% 2.0 mph SW3.2 kmh SW 6.0 mph9.7 kmh 29.98 in1015.2 mb 0.01 in0.3 mm 0.00 in0.0 mm 0.09 in2.3 mm
09:34 AM 51.6°F10.9°C 51.3°F10.7°C 99% 1.9 mph SW3.1 kmh SW 6.0 mph9.7 kmh 29.98 in1015.2 mb 0.00 in0.0 mm 0.00 in0.0 mm 0.09 in2.3 mm
09:39 AM 52.1°F11.2°C 51.8°F11.0°C 99% 1.8 mph SW2.9 kmh SW 6.0 mph9.7 kmh 29.98 in1015.2 mb 0.00 in0.0 mm 0.00 in0.0 mm 0.09 in2.3 mm
09:44 AM 52.2°F11.2°C 51.6°F10.9°C 98% 1.3 mph SW2.1 kmh SW 6.0 mph9.7 kmh 29.98 in1015.2 mb 0.00 in0.0 mm 0.00 in0.0 mm 0.09 in2.3 mm
09:49 AM 52.4°F11.3°C 51.9°F11.1°C 98% 1.3 mph SW2.1 kmh SW 6.0 mph9.7 kmh 29.99 in1015.6 mb 0.00 in0.0 mm 0.00 in0.0 mm 0.09 in2.3 mm
09:54 AM 52.3°F11.3°C 51.2°F10.7°C 96% 5.1 mph WSW8.2 kmh WSW 11.0 mph17.7 kmh 29.98 in1015.2 mb 0.00 in0.0 mm 0.00 in0.0 mm 0.09 in2.3 mm
09:59 AM 52.2°F11.2°C 48.7°F9.3°C 88% 7.5 mph WSW12.1 kmh WSW 15.0 mph24.1 kmh 29.99 in1015.6 mb 0.00 in0.0 mm 0.00 in0.0 mm 0.09 in2.3 mm
10:04 AM 52.4°F11.3°C 48.6°F9.2°C 87% 2.9 mph WSW4.7 kmh WSW 15.0 mph24.1 kmh 29.99 in1015.6 mb 0.00 in0.0 mm 0.00 in0.0 mm 0.09 in2.3 mm
10:09 AM 52.8°F11.6°C 49.3°F9.6°C 88% 1.1 mph WSW1.8 kmh WSW 15.0 mph24.1 kmh 29.99 in1015.6 mb 0.00 in0.0 mm 0.00 in0.0 mm 0.09 in2.3 mm
10:14 AM 52.8°F11.6°C 48.4°F9.1°C 85% 4.1 mph SW6.6 kmh SW 15.0 mph24.1 kmh 29.99 in1015.6 mb 0.00 in0.0 mm 0.00 in0.0 mm 0.09 in2.3 mm
10:19 AM 52.8°F11.6°C 47.5°F8.6°C 82% 3.1 mph WSW5.0 kmh WSW 12.0 mph19.3 kmh 29.99 in1015.6 mb 0.00 in0.0 mm 0.00 in0.0 mm 0.09 in2.3 mm
10:24 AM 52.7°F11.5°C 47.7°F8.7°C 83% 5.9 mph SW9.5 kmh SW 12.0 mph19.3 kmh 29.99 in1015.6 mb 0.00 in0.0 mm 0.00 in0.0 mm 0.09 in2.3 mm
10:29 AM 52.6°F11.4°C 47.9°F8.8°C 84% 1.7 mph SW2.7 kmh SW 13.0 mph20.9 kmh 29.99 in1015.6 mb 0.00 in0.0 mm 0.00 in0.0 mm 0.09 in2.3 mm
10:34 AM 52.6°F11.4°C 47.6°F8.7°C 83% 5.2 mph SW8.4 kmh SW 14.0 mph22.5 kmh 29.99 in1015.6 mb 0.00 in0.0 mm 0.00 in0.0 mm 0.09 in2.3 mm
10:39 AM 52.8°F11.6°C 47.5°F8.6°C 82% 3.7 mph SW6.0 kmh SW 14.0 mph22.5 kmh 29.99 in1015.6 mb 0.00 in0.0 mm 0.00 in0.0 mm 0.09 in2.3 mm
10:44 AM 53.1°F11.7°C 47.8°F8.8°C 82% 3.2 mph WSW5.1 kmh WSW 14.0 mph22.5 kmh 29.99 in1015.6 mb 0.00 in0.0 mm 0.00 in0.0 mm 0.09 in2.3 mm
10:49 AM 53.5°F11.9°C 47.8°F8.8°C 81% 3.2 mph SW5.1 kmh SW 14.0 mph22.5 kmh 29.99 in1015.6 mb 0.00 in0.0 mm 0.00 in0.0 mm 0.09 in2.3 mm
10:54 AM 53.7°F12.1°C 47.7°F8.7°C 80% 5.0 mph SW8.0 kmh SW 11.0 mph17.7 kmh 29.98 in1015.2 mb 0.00 in0.0 mm 0.00 in0.0 mm 0.09 in2.3 mm
10:59 AM 53.4°F11.9°C 47.4°F8.6°C 80% 4.7 mph WSW7.6 kmh WSW 11.0 mph17.7 kmh 29.98 in1015.2 mb 0.00 in0.0 mm 0.00 in0.0 mm 0.09 in2.3 mm
11:04 AM 53.3°F11.8°C 47.6°F8.7°C 81% 3.6 mph W5.8 kmh W 10.0 mph16.1 kmh 29.98 in1015.2 mb 0.00 in0.0 mm 0.00 in0.0 mm 0.09 in2.3 mm
11:09 AM 53.3°F11.8°C 47.6°F8.7°C 81% 2.4 mph SW3.9 kmh SW 12.0 mph19.3 kmh 29.98 in1015.2 mb 0.00 in0.0 mm 0.00 in0.0 mm 0.09 in2.3 mm
11:14 AM 53.5°F11.9°C 47.5°F8.6°C 80% 6.0 mph SW9.7 kmh SW 18.0 mph29.0 kmh 29.98 in1015.2 mb 0.00 in0.0 mm 0.00 in0.0 mm 0.09 in2.3 mm
11:19 AM 53.5°F11.9°C 47.1°F8.4°C 79% 5.2 mph SW8.4 kmh SW 18.0 mph29.0 kmh 29.98 in1015.2 mb 0.00 in0.0 mm 0.00 in0.0 mm 0.09 in2.3 mm
11:24 AM 53.8°F12.1°C 47.8°F8.8°C 80% 1.0 mph WSW1.6 kmh WSW 18.0 mph29.0 kmh 29.98 in1015.2 mb 0.00 in0.0 mm 0.00 in0.0 mm 0.09 in2.3 mm
11:29 AM 53.8°F12.1°C 47.8°F8.8°C 80% 3.4 mph WSW5.5 kmh WSW 18.0 mph29.0 kmh 29.98 in1015.2 mb 0.00 in0.0 mm 0.00 in0.0 mm 0.09 in2.3 mm
11:34 AM 53.9°F12.2°C 47.6°F8.7°C 79% 4.0 mph SW6.4 kmh SW 12.0 mph19.3 kmh 29.98 in1015.2 mb 0.00 in0.0 mm 0.00 in0.0 mm 0.09 in2.3 mm
11:39 AM 53.9°F12.2°C 47.6°F8.7°C 79% 5.0 mph WSW8.0 kmh WSW 11.0 mph17.7 kmh 29.98 in1015.2 mb 0.00 in0.0 mm 0.00 in0.0 mm 0.09 in2.3 mm
11:44 AM 54.2°F12.3°C 47.5°F8.6°C 78% 2.8 mph WSW4.5 kmh WSW 11.0 mph17.7 kmh 29.98 in1015.2 mb 0.00 in0.0 mm 0.00 in0.0 mm 0.09 in2.3 mm
11:49 AM 54.3°F12.4°C 47.6°F8.7°C 78% 2.6 mph W4.2 kmh W 11.0 mph17.7 kmh 29.97 in1014.9 mb 0.00 in0.0 mm 0.00 in0.0 mm 0.09 in2.3 mm
11:54 AM 54.3°F12.4°C 47.6°F8.7°C 78% 3.0 mph W4.8 kmh W 11.0 mph17.7 kmh 29.97 in1014.9 mb 0.00 in0.0 mm 0.00 in0.0 mm 0.09 in2.3 mm
11:59 AM 54.4°F12.4°C 48.1°F8.9°C 79% 1.2 mph WSW1.9 kmh WSW 8.0 mph12.9 kmh 29.97 in1014.9 mb 0.00 in0.0 mm 0.00 in0.0 mm 0.09 in2.3 mm
12:04 PM 54.6°F12.6°C 47.9°F8.8°C 78% 2.7 mph SW4.3 kmh SW 7.0 mph11.3 kmh 29.97 in1014.9 mb 0.00 in0.0 mm 0.00 in0.0 mm 0.09 in2.3 mm
12:09 PM 54.8°F12.7°C 47.8°F8.8°C 77% 3.6 mph SW5.8 kmh SW 9.0 mph14.5 kmh 29.97 in1014.9 mb 0.00 in0.0 mm 0.00 in0.0 mm 0.09 in2.3 mm
12:14 PM 54.7°F12.6°C 47.4°F8.6°C 76% 3.3 mph SW5.3 kmh SW 11.0 mph17.7 kmh 29.97 in1014.9 mb 0.00 in0.0 mm 0.00 in0.0 mm 0.09 in2.3 mm
12:19 PM 54.9°F12.7°C 48.2°F9.0°C 78% 1.0 mph SW1.6 kmh SW 11.0 mph17.7 kmh 29.96 in1014.6 mb 0.00 in0.0 mm 0.00 in0.0 mm 0.09 in2.3 mm
12:24 PM 55.5°F13.1°C 48.1°F8.9°C 76% 2.4 mph SW3.9 kmh SW 11.0 mph17.7 kmh 29.96 in1014.6 mb 0.00 in0.0 mm 0.00 in0.0 mm 0.09 in2.3 mm
12:29 PM 55.4°F13.0°C 47.3°F8.5°C 74% 1.9 mph SW3.1 kmh SW 11.0 mph17.7 kmh 29.96 in1014.6 mb 0.00 in0.0 mm 0.00 in0.0 mm 0.09 in2.3 mm
12:34 PM 55.4°F13.0°C 48.0°F8.9°C 76% 1.0 mph SSW1.6 kmh SSW 9.0 mph14.5 kmh 29.96 in1014.6 mb 0.00 in0.0 mm 0.00 in0.0 mm 0.09 in2.3 mm
12:39 PM 54.9°F12.7°C 46.9°F8.3°C 74% 6.0 mph SW9.7 kmh SW 14.0 mph22.5 kmh 29.96 in1014.6 mb 0.00 in0.0 mm 0.00 in0.0 mm 0.09 in2.3 mm
12:44 PM 54.9°F12.7°C 47.2°F8.4°C 75% 5.6 mph SW9.0 kmh SW 14.0 mph22.5 kmh 29.96 in1014.6 mb 0.00 in0.0 mm 0.00 in0.0 mm 0.09 in2.3 mm
12:49 PM 54.8°F12.7°C 47.1°F8.4°C 75% 3.8 mph SW6.1 kmh SW 14.0 mph22.5 kmh 29.95 in1014.2 mb 0.00 in0.0 mm 0.00 in0.0 mm 0.09 in2.3 mm
12:54 PM 54.9°F12.7°C 47.6°F8.7°C 76% 3.4 mph SW5.5 kmh SW 14.0 mph22.5 kmh 29.96 in1014.6 mb 0.00 in0.0 mm 0.00 in0.0 mm 0.09 in2.3 mm
12:59 PM 54.5°F12.5°C 46.8°F8.2°C 75% 5.3 mph SW8.5 kmh SW 13.0 mph20.9 kmh 29.95 in1014.2 mb 0.00 in0.0 mm 0.00 in0.0 mm 0.09 in2.3 mm
01:03 PM 54.4°F12.4°C 46.6°F8.1°C 75% 6.2 mph SW10.0 kmh SW 18.0 mph29.0 kmh 29.95 in1014.2 mb 0.00 in0.0 mm 0.00 in0.0 mm 0.09 in2.3 mm
01:08 PM 54.3°F12.4°C 46.9°F8.3°C 76% 3.0 mph SW4.8 kmh SW 18.0 mph29.0 kmh 29.95 in1014.2 mb 0.00 in0.0 mm 0.00 in0.0 mm 0.09 in2.3 mm
01:13 PM 54.2°F12.3°C 46.8°F8.2°C 76% 3.3 mph SW5.3 kmh SW 18.0 mph29.0 kmh 29.95 in1014.2 mb 0.00 in0.0 mm 0.00 in0.0 mm 0.09 in2.3 mm
01:18 PM 54.3°F12.4°C 47.3°F8.5°C 77% 3.2 mph SW5.1 kmh SW 18.0 mph29.0 kmh 29.95 in1014.2 mb 0.00 in0.0 mm 0.00 in0.0 mm 0.09 in2.3 mm
01:23 PM 54.4°F12.4°C 47.4°F8.6°C 77% 2.7 mph SSW4.3 kmh SSW 14.0 mph22.5 kmh 29.95 in1014.2 mb 0.00 in0.0 mm 0.00 in0.0 mm 0.09 in2.3 mm
01:28 PM 54.4°F12.4°C 47.1°F8.4°C 76% 6.3 mph SW10.1 kmh SW 14.0 mph22.5 kmh 29.95 in1014.2 mb 0.00 in0.0 mm 0.00 in0.0 mm 0.09 in2.3 mm
01:33 PM 54.2°F12.3°C 46.9°F8.3°C 76% 6.9 mph SW11.1 kmh SW 14.0 mph22.5 kmh 29.95 in1014.2 mb 0.00 in0.0 mm 0.00 in0.0 mm 0.09 in2.3 mm
01:38 PM 54.2°F12.3°C 47.2°F8.4°C 77% 4.7 mph SW7.6 kmh SW 13.0 mph20.9 kmh 29.95 in1014.2 mb 0.00 in0.0 mm 0.00 in0.0 mm 0.09 in2.3 mm
01:43 PM 54.3°F12.4°C 46.9°F8.3°C 76% 2.8 mph SW4.5 kmh SW 14.0 mph22.5 kmh 29.95 in1014.2 mb 0.00 in0.0 mm 0.00 in0.0 mm 0.09 in2.3 mm
01:48 PM 54.4°F12.4°C 47.1°F8.4°C 76% 3.7 mph SW6.0 kmh SW 14.0 mph22.5 kmh 29.95 in1014.2 mb 0.00 in0.0 mm 0.00 in0.0 mm 0.09 in2.3 mm
01:53 PM 54.7°F12.6°C 47.4°F8.6°C 76% 3.2 mph WSW5.1 kmh WSW 14.0 mph22.5 kmh 29.95 in1014.2 mb 0.00 in0.0 mm 0.00 in0.0 mm 0.09 in2.3 mm
01:58 PM 54.5°F12.5°C 46.4°F8.0°C 74% 5.6 mph WSW9.0 kmh WSW 14.0 mph22.5 kmh 29.95 in1014.2 mb 0.00 in0.0 mm 0.00 in0.0 mm 0.09 in2.3 mm
02:03 PM 54.4°F12.4°C 46.7°F8.2°C 75% 5.3 mph WSW8.5 kmh WSW 15.0 mph24.1 kmh 29.95 in1014.2 mb 0.00 in0.0 mm 0.00 in0.0 mm 0.09 in2.3 mm
02:08 PM 54.2°F12.3°C 46.5°F8.1°C 75% 3.1 mph SW5.0 kmh SW 15.0 mph24.1 kmh 29.95 in1014.2 mb 0.00 in0.0 mm 0.00 in0.0 mm 0.09 in2.3 mm
02:13 PM 54.1°F12.3°C 46.4°F8.0°C 75% 5.4 mph WSW8.7 kmh WSW 15.0 mph24.1 kmh 29.95 in1014.2 mb 0.00 in0.0 mm 0.00 in0.0 mm 0.09 in2.3 mm
02:18 PM 54.0°F12.2°C 46.7°F8.2°C 76% 7.1 mph WSW11.4 kmh WSW 13.0 mph20.9 kmh 29.95 in1014.2 mb 0.00 in0.0 mm 0.00 in0.0 mm 0.09 in2.3 mm
02:23 PM 53.7°F12.1°C 46.4°F8.0°C 76% 3.0 mph WSW4.8 kmh WSW 13.0 mph20.9 kmh 29.96 in1014.6 mb 0.00 in0.0 mm 0.00 in0.0 mm 0.09 in2.3 mm
02:28 PM 53.6°F12.0°C 46.6°F8.1°C 77% 4.8 mph WSW7.7 kmh WSW 13.0 mph20.9 kmh 29.96 in1014.6 mb 0.00 in0.0 mm 0.00 in0.0 mm 0.09 in2.3 mm
02:33 PM 53.5°F11.9°C 46.5°F8.1°C 77% 5.0 mph WSW8.0 kmh WSW 13.0 mph20.9 kmh 29.96 in1014.6 mb 0.00 in0.0 mm 0.00 in0.0 mm 0.09 in2.3 mm
02:38 PM 53.4°F11.9°C 46.7°F8.2°C 78% 4.9 mph WSW7.9 kmh WSW 11.0 mph17.7 kmh 29.96 in1014.6 mb 0.00 in0.0 mm 0.00 in0.0 mm 0.09 in2.3 mm
02:43 PM 53.4°F11.9°C 46.8°F8.2°C 78% 5.7 mph WSW9.2 kmh WSW 11.0 mph17.7 kmh 29.96 in1014.6 mb 0.00 in0.0 mm 0.00 in0.0 mm 0.09 in2.3 mm
02:48 PM 53.4°F11.9°C 47.0°F8.3°C 79% 2.2 mph SW3.5 kmh SW 11.0 mph17.7 kmh 29.96 in1014.6 mb 0.00 in0.0 mm 0.00 in0.0 mm 0.09 in2.3 mm
02:53 PM 53.3°F11.8°C 47.0°F8.3°C 79% 1.6 mph WSW2.6 kmh WSW 10.0 mph16.1 kmh 29.96 in1014.6 mb 0.00 in0.0 mm 0.00 in0.0 mm 0.09 in2.3 mm
02:58 PM 53.3°F11.8°C 47.0°F8.3°C 79% 4.2 mph WSW6.8 kmh WSW 10.0 mph16.1 kmh 29.96 in1014.6 mb 0.00 in0.0 mm 0.00 in0.0 mm 0.09 in2.3 mm
03:03 PM 53.3°F11.8°C 47.0°F8.3°C 79% 3.8 mph WSW6.1 kmh WSW 10.0 mph16.1 kmh 29.96 in1014.6 mb 0.00 in0.0 mm 0.00 in0.0 mm 0.09 in2.3 mm
03:08 PM 53.4°F11.9°C 47.1°F8.4°C 79% 4.4 mph WSW7.1 kmh WSW 10.0 mph16.1 kmh 29.97 in1014.9 mb 0.00 in0.0 mm 0.00 in0.0 mm 0.09 in2.3 mm
03:13 PM 53.4°F11.9°C 47.1°F8.4°C 79% 4.3 mph WSW6.9 kmh WSW 10.0 mph16.1 kmh 29.97 in1014.9 mb 0.00 in0.0 mm 0.00 in0.0 mm 0.09 in2.3 mm
03:18 PM 53.4°F11.9°C 46.8°F8.2°C 78% 3.7 mph W6.0 kmh W 12.0 mph19.3 kmh 29.97 in1014.9 mb 0.00 in0.0 mm 0.00 in0.0 mm 0.09 in2.3 mm
03:23 PM 53.4°F11.9°C 46.7°F8.2°C 78% 5.0 mph WSW8.0 kmh WSW 12.0 mph19.3 kmh 29.97 in1014.9 mb 0.00 in0.0 mm 0.00 in0.0 mm 0.09 in2.3 mm
03:28 PM 53.3°F11.8°C 46.6°F8.1°C 78% 4.1 mph WSW6.6 kmh WSW 13.0 mph20.9 kmh 29.97 in1014.9 mb 0.00 in0.0 mm 0.00 in0.0 mm 0.09 in2.3 mm
03:33 PM 53.3°F11.8°C 47.0°F8.3°C 79% 2.4 mph WSW3.9 kmh WSW 13.0 mph20.9 kmh 29.97 in1014.9 mb 0.00 in0.0 mm 0.00 in0.0 mm 0.09 in2.3 mm
03:38 PM 53.2°F11.8°C 46.9°F8.3°C 79% 5.8 mph WSW9.3 kmh WSW 13.0 mph20.9 kmh 29.97 in1014.9 mb 0.00 in0.0 mm 0.00 in0.0 mm 0.09 in2.3 mm
03:43 PM 53.2°F11.8°C 46.6°F8.1°C 78% 3.4 mph WSW5.5 kmh WSW 13.0 mph20.9 kmh 29.97 in1014.9 mb 0.00 in0.0 mm 0.00 in0.0 mm 0.09 in2.3 mm
03:48 PM 53.1°F11.7°C 46.8°F8.2°C 79% 3.1 mph WSW5.0 kmh WSW 13.0 mph20.9 kmh 29.98 in1015.2 mb 0.00 in0.0 mm 0.00 in0.0 mm 0.09 in2.3 mm
03:53 PM 53.0°F11.7°C 46.7°F8.2°C 79% 1.9 mph WSW3.1 kmh WSW 13.0 mph20.9 kmh 29.98 in1015.2 mb 0.00 in0.0 mm 0.00 in0.0 mm 0.09 in2.3 mm
03:58 PM 52.9°F11.6°C 46.6°F8.1°C 79% 2.8 mph WSW4.5 kmh WSW 12.0 mph19.3 kmh 29.98 in1015.2 mb 0.00 in0.0 mm 0.00 in0.0 mm 0.09 in2.3 mm
04:03 PM 53.0°F11.7°C 46.7°F8.2°C 79% 3.6 mph WSW5.8 kmh WSW 10.0 mph16.1 kmh 29.98 in1015.2 mb 0.00 in0.0 mm 0.00 in0.0 mm 0.09 in2.3 mm
04:08 PM 52.9°F11.6°C 46.6°F8.1°C 79% 2.7 mph SW4.3 kmh SW 8.0 mph12.9 kmh 29.98 in1015.2 mb 0.00 in0.0 mm 0.00 in0.0 mm 0.09 in2.3 mm
04:13 PM 53.0°F11.7°C 47.0°F8.3°C 80% 1.2 mph WSW1.9 kmh WSW 7.0 mph11.3 kmh 29.98 in1015.2 mb 0.00 in0.0 mm 0.00 in0.0 mm 0.09 in2.3 mm
04:18 PM 53.0°F11.7°C 47.0°F8.3°C 80% 1.1 mph SW1.8 kmh SW 8.0 mph12.9 kmh 29.98 in1015.2 mb 0.00 in0.0 mm 0.00 in0.0 mm 0.09 in2.3 mm
04:23 PM 53.0°F11.7°C 47.0°F8.3°C 80% 2.2 mph WSW3.5 kmh WSW 8.0 mph12.9 kmh 29.99 in1015.6 mb 0.00 in0.0 mm 0.00 in0.0 mm 0.09 in2.3 mm
04:28 PM 53.0°F11.7°C 47.0°F8.3°C 80% 4.9 mph SW7.9 kmh SW 12.0 mph19.3 kmh 29.99 in1015.6 mb 0.00 in0.0 mm 0.00 in0.0 mm 0.09 in2.3 mm
04:33 PM 53.0°F11.7°C 47.0°F8.3°C 80% 1.7 mph SW2.7 kmh SW 12.0 mph19.3 kmh 29.99 in1015.6 mb 0.00 in0.0 mm 0.00 in0.0 mm 0.09 in2.3 mm
04:38 PM 53.0°F11.7°C 47.0°F8.3°C 80% 5.7 mph WSW9.2 kmh WSW 13.0 mph20.9 kmh 29.99 in1015.6 mb 0.00 in0.0 mm 0.00 in0.0 mm 0.09 in2.3 mm
04:43 PM 52.9°F11.6°C 46.9°F8.3°C 80% 5.0 mph WSW8.0 kmh WSW 13.0 mph20.9 kmh 29.99 in1015.6 mb 0.00 in0.0 mm 0.00 in0.0 mm 0.09 in2.3 mm
04:48 PM 52.8°F11.6°C 47.2°F8.4°C 81% 1.0 mph WSW1.6 kmh WSW 13.0 mph20.9 kmh 29.99 in1015.6 mb 0.00 in0.0 mm 0.00 in0.0 mm 0.09 in2.3 mm
04:53 PM 52.8°F11.6°C 46.8°F8.2°C 80% 4.7 mph SW7.6 kmh SW 13.0 mph20.9 kmh 29.99 in1015.6 mb 0.00 in0.0 mm 0.00 in0.0 mm 0.09 in2.3 mm
04:58 PM 52.7°F11.5°C 47.1°F8.4°C 81% 2.5 mph WSW4.0 kmh WSW 10.0 mph16.1 kmh 30.00 in1015.9 mb 0.00 in0.0 mm 0.00 in0.0 mm 0.09 in2.3 mm
05:03 PM 52.7°F11.5°C 47.1°F8.4°C 81% 3.8 mph SW6.1 kmh SW 10.0 mph16.1 kmh 30.00 in1015.9 mb 0.00 in0.0 mm 0.00 in0.0 mm 0.09 in2.3 mm
05:08 PM 52.6°F11.4°C 47.0°F8.3°C 81% 3.8 mph SW6.1 kmh SW 10.0 mph16.1 kmh 30.00 in1015.9 mb 0.00 in0.0 mm 0.00 in0.0 mm 0.09 in2.3 mm
05:13 PM 52.5°F11.4°C 46.9°F8.3°C 81% 3.6 mph WSW5.8 kmh WSW 10.0 mph16.1 kmh 30.00 in1015.9 mb 0.00 in0.0 mm 0.00 in0.0 mm 0.09 in2.3 mm
05:18 PM 52.4°F11.3°C 46.8°F8.2°C 81% 3.5 mph WSW5.6 kmh WSW 10.0 mph16.1 kmh 30.00 in1015.9 mb 0.00 in0.0 mm 0.00 in0.0 mm 0.09 in2.3 mm
05:23 PM 52.4°F11.3°C 46.4°F8.0°C 80% 3.8 mph WSW6.1 kmh WSW 10.0 mph16.1 kmh 30.00 in1015.9 mb 0.00 in0.0 mm 0.00 in0.0 mm 0.09 in2.3 mm
05:28 PM 52.3°F11.3°C 46.4°F8.0°C 80% 5.2 mph SW8.4 kmh SW 10.0 mph16.1 kmh 30.00 in1015.9 mb 0.00 in0.0 mm 0.00 in0.0 mm 0.09 in2.3 mm
05:33 PM 52.3°F11.3°C 46.4°F8.0°C 80% 2.4 mph WSW3.9 kmh WSW 10.0 mph16.1 kmh 30.00 in1015.9 mb 0.00 in0.0 mm 0.00 in0.0 mm 0.09 in2.3 mm
05:38 PM 52.2°F11.2°C 46.3°F7.9°C 80% 2.6 mph SW4.2 kmh SW 10.0 mph16.1 kmh 30.00 in1015.9 mb 0.00 in0.0 mm 0.00 in0.0 mm 0.09 in2.3 mm
05:43 PM 52.1°F11.2°C 46.2°F7.9°C 80% 3.7 mph SW6.0 kmh SW 10.0 mph16.1 kmh 30.00 in1015.9 mb 0.00 in0.0 mm 0.00 in0.0 mm 0.09 in2.3 mm
05:48 PM 52.1°F11.2°C 46.5°F8.1°C 81% 1.9 mph WSW3.1 kmh WSW 8.0 mph12.9 kmh 30.00 in1015.9 mb 0.00 in0.0 mm 0.00 in0.0 mm 0.09 in2.3 mm
05:53 PM 52.0°F11.1°C 46.4°F8.0°C 81% 1.7 mph SW2.7 kmh SW 8.0 mph12.9 kmh 30.00 in1015.9 mb 0.00 in0.0 mm 0.00 in0.0 mm 0.09 in2.3 mm
05:58 PM 51.9°F11.1°C 46.3°F7.9°C 81% 3.6 mph WSW5.8 kmh WSW 10.0 mph16.1 kmh 30.00 in1015.9 mb 0.00 in0.0 mm 0.00 in0.0 mm 0.09 in2.3 mm
06:02 PM 51.8°F11.0°C 46.2°F7.9°C 81% 2.4 mph SW3.9 kmh SW 10.0 mph16.1 kmh 30.00 in1015.9 mb 0.00 in0.0 mm 0.00 in0.0 mm 0.09 in2.3 mm
06:07 PM 51.7°F10.9°C 46.4°F8.0°C 82% 4.0 mph WSW6.4 kmh WSW 10.0 mph16.1 kmh 30.00 in1015.9 mb 0.00 in0.0 mm 0.00 in0.0 mm 0.09 in2.3 mm
06:12 PM 51.6°F10.9°C 46.3°F7.9°C 82% 3.1 mph SW5.0 kmh SW 10.0 mph16.1 kmh 30.00 in1015.9 mb 0.00 in0.0 mm 0.00 in0.0 mm 0.09 in2.3 mm
06:17 PM 51.5°F10.8°C 46.2°F7.9°C 82% 1.0 mph SW1.6 kmh SW 9.0 mph14.5 kmh 30.00 in1015.9 mb 0.00 in0.0 mm 0.00 in0.0 mm 0.09 in2.3 mm
06:22 PM 51.4°F10.8°C 46.1°F7.8°C 82% 1.6 mph SW2.6 kmh SW 9.0 mph14.5 kmh 30.00 in1015.9 mb 0.00 in0.0 mm 0.00 in0.0 mm 0.09 in2.3 mm
06:27 PM 51.3°F10.7°C 46.0°F7.8°C 82% 2.0 mph WSW3.2 kmh WSW 6.0 mph9.7 kmh 30.01 in1016.3 mb 0.00 in0.0 mm 0.00 in0.0 mm 0.09 in2.3 mm
06:32 PM 51.3°F10.7°C 46.3°F7.9°C 83% 1.2 mph WSW1.9 kmh WSW 5.0 mph8.0 kmh 30.01 in1016.3 mb 0.00 in0.0 mm 0.00 in0.0 mm 0.09 in2.3 mm
06:37 PM 51.2°F10.7°C 46.2°F7.9°C 83% 2.4 mph WSW3.9 kmh WSW 5.0 mph8.0 kmh 30.01 in1016.3 mb 0.00 in0.0 mm 0.00 in0.0 mm 0.09 in2.3 mm
06:42 PM 51.2°F10.7°C 46.2°F7.9°C 83% 1.8 mph WSW2.9 kmh WSW 5.0 mph8.0 kmh 30.01 in1016.3 mb 0.00 in0.0 mm 0.00 in0.0 mm 0.09 in2.3 mm
06:47 PM 51.1°F10.6°C 46.1°F7.8°C 83% Calm Calm 5.0 mph8.0 kmh 30.02 in1016.6 mb 0.00 in0.0 mm 0.00 in0.0 mm 0.09 in2.3 mm
06:52 PM 51.1°F10.6°C 46.1°F7.8°C 83% 1.0 mph SW1.6 kmh SW 5.0 mph8.0 kmh 30.02 in1016.6 mb 0.00 in0.0 mm 0.00 in0.0 mm 0.09 in2.3 mm
06:57 PM 51.0°F10.6°C 46.0°F7.8°C 83% 1.6 mph SW2.6 kmh SW 5.0 mph8.0 kmh 30.02 in1016.6 mb 0.00 in0.0 mm 0.00 in0.0 mm 0.09 in2.3 mm
07:02 PM 50.9°F10.5°C 46.2°F7.9°C 84% 1.5 mph WSW2.4 kmh WSW 5.0 mph8.0 kmh 30.02 in1016.6 mb 0.00 in0.0 mm 0.00 in0.0 mm 0.09 in2.3 mm
07:07 PM 50.9°F10.5°C 46.2°F7.9°C 84% 1.8 mph WSW2.9 kmh WSW 5.0 mph8.0 kmh 30.02 in1016.6 mb 0.00 in0.0 mm 0.00 in0.0 mm 0.09 in2.3 mm
07:12 PM 50.8°F10.4°C 46.1°F7.8°C 84% 1.7 mph SW2.7 kmh SW 5.0 mph8.0 kmh 30.02 in1016.6 mb 0.00 in0.0 mm 0.00 in0.0 mm 0.09 in2.3 mm
07:17 PM 50.8°F10.4°C 46.4°F8.0°C 85% 1.2 mph SW1.9 kmh SW 4.0 mph6.4 kmh 30.02 in1016.6 mb 0.00 in0.0 mm 0.00 in0.0 mm 0.09 in2.3 mm
07:22 PM 50.7°F10.4°C 46.3°F7.9°C 85% 2.9 mph SW4.7 kmh SW 6.0 mph9.7 kmh 30.02 in1016.6 mb 0.00 in0.0 mm 0.00 in0.0 mm 0.09 in2.3 mm
07:27 PM 50.6°F10.3°C 46.3°F7.9°C 85% 1.3 mph SW2.1 kmh SW 6.0 mph9.7 kmh 30.02 in1016.6 mb 0.00 in0.0 mm 0.00 in0.0 mm 0.09 in2.3 mm
07:32 PM 50.5°F10.3°C 46.2°F7.9°C 85% 2.3 mph SW3.7 kmh SW 6.0 mph9.7 kmh 30.02 in1016.6 mb 0.00 in0.0 mm 0.00 in0.0 mm 0.09 in2.3 mm
07:37 PM 50.4°F10.2°C 46.1°F7.8°C 85% 1.2 mph SW1.9 kmh SW 6.0 mph9.7 kmh 30.03 in1016.9 mb 0.00 in0.0 mm 0.00 in0.0 mm 0.09 in2.3 mm
07:42 PM 50.3°F10.2°C 46.3°F7.9°C 86% 1.6 mph WSW2.6 kmh WSW 6.0 mph9.7 kmh 30.03 in1016.9 mb 0.00 in0.0 mm 0.00 in0.0 mm 0.09 in2.3 mm
07:47 PM 50.2°F10.1°C 46.2°F7.9°C 86% 1.4 mph SW2.3 kmh SW 6.0 mph9.7 kmh 30.03 in1016.9 mb 0.00 in0.0 mm 0.00 in0.0 mm 0.09 in2.3 mm
07:52 PM 50.1°F10.1°C 46.4°F8.0°C 87% 1.6 mph SW2.6 kmh SW 6.0 mph9.7 kmh 30.03 in1016.9 mb 0.00 in0.0 mm 0.00 in0.0 mm 0.09 in2.3 mm
07:57 PM 50.0°F10.0°C 46.3°F7.9°C 87% 2.6 mph WSW4.2 kmh WSW 6.0 mph9.7 kmh 30.03 in1016.9 mb 0.00 in0.0 mm 0.00 in0.0 mm 0.09 in2.3 mm
08:02 PM 49.9°F9.9°C 46.2°F7.9°C 87% 1.0 mph WSW1.6 kmh WSW 5.0 mph8.0 kmh 30.03 in1016.9 mb 0.00 in0.0 mm 0.00 in0.0 mm 0.09 in2.3 mm
08:07 PM 49.9°F9.9°C 46.2°F7.9°C 87% 2.1 mph SW3.4 kmh SW 6.0 mph9.7 kmh 30.03 in1016.9 mb 0.00 in0.0 mm 0.00 in0.0 mm 0.09 in2.3 mm
08:12 PM 49.8°F9.9°C 46.4°F8.0°C 88% 1.6 mph SW2.6 kmh SW 6.0 mph9.7 kmh 30.03 in1016.9 mb 0.00 in0.0 mm 0.00 in0.0 mm 0.09 in2.3 mm
08:17 PM 49.8°F9.9°C 46.4°F8.0°C 88% 2.5 mph SW4.0 kmh SW 7.0 mph11.3 kmh 30.03 in1016.9 mb 0.00 in0.0 mm 0.00 in0.0 mm 0.09 in2.3 mm
08:22 PM 49.7°F9.8°C 46.3°F7.9°C 88% 1.5 mph SW2.4 kmh SW 9.0 mph14.5 kmh 30.03 in1016.9 mb 0.00 in0.0 mm 0.00 in0.0 mm 0.09 in2.3 mm
08:27 PM 49.6°F9.8°C 46.2°F7.9°C 88% 3.2 mph WSW5.1 kmh WSW 9.0 mph14.5 kmh 30.03 in1016.9 mb 0.00 in0.0 mm 0.00 in0.0 mm 0.09 in2.3 mm
08:32 PM 49.6°F9.8°C 46.2°F7.9°C 88% 2.3 mph SW3.7 kmh SW 9.0 mph14.5 kmh 30.03 in1016.9 mb 0.00 in0.0 mm 0.00 in0.0 mm 0.09 in2.3 mm
08:37 PM 49.5°F9.7°C 46.4°F8.0°C 89% 1.8 mph SW2.9 kmh SW 7.0 mph11.3 kmh 30.03 in1016.9 mb 0.00 in0.0 mm 0.00 in0.0 mm 0.09 in2.3 mm
08:42 PM 49.3°F9.6°C 46.2°F7.9°C 89% 1.0 mph WSW1.6 kmh WSW 5.0 mph8.0 kmh 30.03 in1016.9 mb 0.00 in0.0 mm 0.00 in0.0 mm 0.09 in2.3 mm
08:47 PM 49.2°F9.6°C 46.1°F7.8°C 89% 1.5 mph SW2.4 kmh SW 5.0 mph8.0 kmh 30.03 in1016.9 mb 0.00 in0.0 mm 0.00 in0.0 mm 0.09 in2.3 mm
08:52 PM 49.1°F9.5°C 46.0°F7.8°C 89% 1.8 mph SW2.9 kmh SW 5.0 mph8.0 kmh 30.03 in1016.9 mb 0.00 in0.0 mm 0.00 in0.0 mm 0.09 in2.3 mm
08:57 PM 48.9°F9.4°C 46.1°F7.8°C 90% 2.2 mph SW3.5 kmh SW 6.0 mph9.7 kmh 30.04 in1017.3 mb 0.00 in0.0 mm 0.00 in0.0 mm 0.09 in2.3 mm
09:02 PM 48.8°F9.3°C 46.0°F7.8°C 90% 2.1 mph SW3.4 kmh SW 6.0 mph9.7 kmh 30.04 in1017.3 mb 0.00 in0.0 mm 0.00 in0.0 mm 0.09 in2.3 mm
09:07 PM 48.7°F9.3°C 45.9°F7.7°C 90% 1.7 mph SW2.7 kmh SW 6.0 mph9.7 kmh 30.04 in1017.3 mb 0.00 in0.0 mm 0.00 in0.0 mm 0.09 in2.3 mm
09:12 PM 48.6°F9.2°C 46.1°F7.8°C 91% 1.9 mph SW3.1 kmh SW 8.0 mph12.9 kmh 30.04 in1017.3 mb 0.00 in0.0 mm 0.00 in0.0 mm 0.09 in2.3 mm
09:17 PM 48.5°F9.2°C 46.0°F7.8°C 91% 1.6 mph SW2.6 kmh SW 8.0 mph12.9 kmh 30.04 in1017.3 mb 0.00 in0.0 mm 0.00 in0.0 mm 0.09 in2.3 mm
09:22 PM 48.5°F9.2°C 46.0°F7.8°C 91% 1.0 mph WSW1.6 kmh WSW 8.0 mph12.9 kmh 30.04 in1017.3 mb 0.00 in0.0 mm 0.00 in0.0 mm 0.09 in2.3 mm
09:27 PM 48.4°F9.1°C 45.9°F7.7°C 91% 2.1 mph SW3.4 kmh SW 8.0 mph12.9 kmh 30.05 in1017.6 mb 0.00 in0.0 mm 0.00 in0.0 mm 0.09 in2.3 mm
09:32 PM 48.4°F9.1°C 46.1°F7.8°C 92% 1.6 mph WSW2.6 kmh WSW 6.0 mph9.7 kmh 30.05 in1017.6 mb 0.00 in0.0 mm 0.00 in0.0 mm 0.09 in2.3 mm
09:37 PM 48.4°F9.1°C 46.1°F7.8°C 92% 1.4 mph SW2.3 kmh SW 6.0 mph9.7 kmh 30.05 in1017.6 mb 0.00 in0.0 mm 0.00 in0.0 mm 0.09 in2.3 mm
09:42 PM 48.5°F9.2°C 46.2°F7.9°C 92% 2.6 mph WSW4.2 kmh WSW 6.0 mph9.7 kmh 30.05 in1017.6 mb 0.00 in0.0 mm 0.00 in0.0 mm 0.09 in2.3 mm
09:47 PM 48.6°F9.2°C 46.4°F8.0°C 92% 2.2 mph WSW3.5 kmh WSW 6.0 mph9.7 kmh 30.05 in1017.6 mb 0.00 in0.0 mm 0.00 in0.0 mm 0.09 in2.3 mm
09:52 PM 48.7°F9.3°C 46.4°F8.0°C 92% 3.0 mph WSW4.8 kmh WSW 6.0 mph9.7 kmh 30.06 in1017.9 mb 0.00 in0.0 mm 0.00 in0.0 mm 0.09 in2.3 mm
09:57 PM 48.7°F9.3°C 46.4°F8.0°C 92% 1.8 mph WSW2.9 kmh WSW 6.0 mph9.7 kmh 30.06 in1017.9 mb 0.00 in0.0 mm 0.00 in0.0 mm 0.09 in2.3 mm
10:02 PM 48.8°F9.3°C 46.5°F8.1°C 92% 2.8 mph WSW4.5 kmh WSW 7.0 mph11.3 kmh 30.05 in1017.6 mb 0.00 in0.0 mm 0.00 in0.0 mm 0.09 in2.3 mm
10:07 PM 48.8°F9.3°C 46.5°F8.1°C 92% 1.5 mph SW2.4 kmh SW 7.0 mph11.3 kmh 30.05 in1017.6 mb 0.00 in0.0 mm 0.00 in0.0 mm 0.09 in2.3 mm
10:12 PM 48.9°F9.4°C 46.6°F8.1°C 92% 3.1 mph WSW5.0 kmh WSW 7.0 mph11.3 kmh 30.06 in1017.9 mb 0.00 in0.0 mm 0.00 in0.0 mm 0.09 in2.3 mm
10:17 PM 48.8°F9.3°C 46.6°F8.1°C 92% 2.3 mph SW3.7 kmh SW 7.0 mph11.3 kmh 30.06 in1017.9 mb 0.00 in0.0 mm 0.00 in0.0 mm 0.09 in2.3 mm
10:22 PM 48.8°F9.3°C 46.5°F8.1°C 92% 2.4 mph WSW3.9 kmh WSW 7.0 mph11.3 kmh 30.06 in1017.9 mb 0.00 in0.0 mm 0.00 in0.0 mm 0.09 in2.3 mm
10:27 PM 48.8°F9.3°C 46.5°F8.1°C 92% 2.3 mph SW3.7 kmh SW 7.0 mph11.3 kmh 30.06 in1017.9 mb 0.00 in0.0 mm 0.00 in0.0 mm 0.09 in2.3 mm
10:32 PM 48.8°F9.3°C 46.5°F8.1°C 92% 1.0 mph SW1.6 kmh SW 7.0 mph11.3 kmh 30.06 in1017.9 mb 0.00 in0.0 mm 0.00 in0.0 mm 0.09 in2.3 mm
10:37 PM 48.8°F9.3°C 46.5°F8.1°C 92% 1.9 mph SW3.1 kmh SW 7.0 mph11.3 kmh 30.06 in1017.9 mb 0.00 in0.0 mm 0.00 in0.0 mm 0.09 in2.3 mm
10:42 PM 48.8°F9.3°C 46.5°F8.1°C 92% 1.3 mph SW2.1 kmh SW 7.0 mph11.3 kmh 30.06 in1017.9 mb 0.00 in0.0 mm 0.00 in0.0 mm 0.09 in2.3 mm
10:47 PM 48.7°F9.3°C 46.4°F8.0°C 92% 1.2 mph WSW1.9 kmh WSW 7.0 mph11.3 kmh 30.06 in1017.9 mb 0.00 in0.0 mm 0.00 in0.0 mm 0.09 in2.3 mm
10:52 PM 48.7°F9.3°C 46.8°F8.2°C 93% 1.5 mph WSW2.4 kmh WSW 7.0 mph11.3 kmh 30.06 in1017.9 mb 0.00 in0.0 mm 0.00 in0.0 mm 0.09 in2.3 mm
10:57 PM 48.8°F9.3°C 46.9°F8.3°C 93% 1.5 mph WSW2.4 kmh WSW 6.0 mph9.7 kmh 30.06 in1017.9 mb 0.00 in0.0 mm 0.00 in0.0 mm 0.09 in2.3 mm
11:01 PM 48.9°F9.4°C 46.9°F8.3°C 93% 1.6 mph SW2.6 kmh SW 6.0 mph9.7 kmh 30.06 in1017.9 mb 0.00 in0.0 mm 0.00 in0.0 mm 0.09 in2.3 mm
11:06 PM 48.9°F9.4°C 46.9°F8.3°C 93% 1.3 mph W2.1 kmh W 6.0 mph9.7 kmh 30.06 in1017.9 mb 0.00 in0.0 mm 0.00 in0.0 mm 0.09 in2.3 mm
11:11 PM 48.9°F9.4°C 46.9°F8.3°C 93% 1.4 mph WSW2.3 kmh WSW 6.0 mph9.7 kmh 30.06 in1017.9 mb 0.00 in0.0 mm 0.00 in0.0 mm 0.09 in2.3 mm
11:16 PM 49.0°F9.4°C 47.0°F8.3°C 93% 1.3 mph SW2.1 kmh SW 5.0 mph8.0 kmh 30.06 in1017.9 mb 0.00 in0.0 mm 0.00 in0.0 mm 0.09 in2.3 mm
11:21 PM 48.9°F9.4°C 46.9°F8.3°C 93% 2.0 mph W3.2 kmh W 4.0 mph6.4 kmh 30.07 in1018.3 mb 0.00 in0.0 mm 0.00 in0.0 mm 0.09 in2.3 mm
11:26 PM 49.0°F9.4°C 47.0°F8.3°C 93% 1.5 mph WSW2.4 kmh WSW 5.0 mph8.0 kmh 30.07 in1018.3 mb 0.00 in0.0 mm 0.00 in0.0 mm 0.09 in2.3 mm
11:31 PM 49.0°F9.4°C 47.0°F8.3°C 93% 1.0 mph SW1.6 kmh SW 5.0 mph8.0 kmh 30.07 in1018.3 mb 0.00 in0.0 mm 0.00 in0.0 mm 0.09 in2.3 mm
11:36 PM 49.0°F9.4°C 47.1°F8.4°C 93% 1.5 mph SW2.4 kmh SW 5.0 mph8.0 kmh 30.07 in1018.3 mb 0.00 in0.0 mm 0.00 in0.0 mm 0.09 in2.3 mm
11:41 PM 49.0°F9.4°C 47.0°F8.3°C 93% 1.6 mph WSW2.6 kmh WSW 5.0 mph8.0 kmh 30.07 in1018.3 mb 0.00 in0.0 mm 0.00 in0.0 mm 0.09 in2.3 mm
11:46 PM 49.0°F9.4°C 47.0°F8.3°C 93% 1.0 mph SW1.6 kmh SW 4.0 mph6.4 kmh 30.07 in1018.3 mb 0.00 in0.0 mm 0.00 in0.0 mm 0.09 in2.3 mm
11:51 PM 49.0°F9.4°C 47.0°F8.3°C 93% 1.0 mph WSW1.6 kmh WSW 4.0 mph6.4 kmh 30.07 in1018.3 mb 0.00 in0.0 mm 0.00 in0.0 mm 0.09 in2.3 mm
11:56 PM 49.1°F9.5°C 47.2°F8.4°C 93% 1.0 mph W1.6 kmh W 6.0 mph9.7 kmh 30.07 in1018.3 mb 0.00 in0.0 mm 0.00 in0.0 mm 0.09 in2.3 mm